Billings, MT (59101)

12:32 PM MST on February 20, 2017 (GMT -0700)
Yellowstone RV Campground | | Change Station

Elev 3120 ft 45.76 °N, 108.48 °W | Updated 25 seconds ago

Partly Cloudy
Partly Cloudy
55.4 °F
Feels Like 55.4 °F
N
0.2
Wind Variable Wind from North
Gusts 2.5 mph

Today
High -- | Low -- °F
--% Chance of Precip.
Yesterday
High -- | Low -- °F
Precip. -- in
Pressure 29.75 in
Visibility 10.0 miles
Clouds Scattered Clouds 10000 ft
Mostly Cloudy 20000 ft
Dew Point 29 °F
Humidity 36%
Rainfall 0.00 in
Snow Depth Not available.
7:07 AM 5:48 PM
Waning Crescent, 32% visible
METAR KBIL 201853Z 17008KT 10SM SCT100 BKN200 11/M04 A2973 RMK AO2 SLP072 ACSL N SE T01061039 $
Pressure 29.75 in
Visibility 10.0 miles
Clouds Scattered Clouds 10000 ft
Mostly Cloudy 20000 ft
Dew Point 29 °F
Humidity 36%
Rainfall 0.00 in
Snow Depth Not available.
7:07 AM 5:48 PM
Waning Crescent, 32% visible
METAR KBIL 201853Z 17008KT 10SM SCT100 BKN200 11/M04 A2973 RMK AO2 SLP072 ACSL N SE T01061039 $

Get Your Daily Forecast Email!

Thanks for signing up!

Be on the lookout for a verification email in your inbox.

You'll start receiving the daily forecast at 8 AM.

×

10-Day Weather Forecast

Almanac

Astronomy

Feb. 20, 2017 Rise Set
Actual Time
Civil Twilight
Nautical Twilight
Astronomical Twilight
Moon
Length of Visible Light
Length of Day
Tomorrow will be .
, % of the Moon is Illuminated

Today's Extremes

State Highs State Lows

Community

WunderPhotos

Upload Photos

1,962,540 photos uploaded!

WunderBlog® & News

Nearby

Air Quality

  Air Quality AQ Index Pollutant
Not available.

Snow Depth

Station Depth Elevation

Earthquake Activity

City Distance Mag. Time & Date
Minimum magnitude displayed is 2.5.

Coastal Water Temperatures

Place Temperature

Stations

Nearby Weather Stations

Station Location Temp. Windchill Dew Point Humidity Wind Precip. Elev Updated Type
                   

Watches & Warnings

There are currently no watches in effect.